Time;durP1;ratioP1;P1;durP2;ratioP2;P2;SDS_P1;SDS_P2;PMS_P1;PMS_P2;Temp;Humidity;BMP_temperature;BMP_pressure;BME280_temperature;BME280_humidity;BME280_pressure;Samples;Min_cycle;Max_cycle;Signal;HPM_P1;HPM_P2
2023/06/14 06:14:37;;;;;;;;;36.25;30.75;;;;;;;;4739485;28;13790;-77
2023/06/14 06:17:02;;;;;;;;;36.25;32.75;;;;;;;;4999185;28;11603;-75
2023/06/14 06:19:27;;;;;;;;;43.75;34.25;;;;;;;;5009148;28;8814;-78
2023/06/14 06:21:52;;;;;;;;;34.25;30.25;;;;;;;;5009407;28;8924;-75
2023/06/14 06:24:17;;;;;;;;;27.75;25.25;;;;;;;;5002446;28;8814;-77
2023/06/14 06:26:42;;;;;;;;;30.25;30.00;;;;;;;;5009512;28;8819;-79
2023/06/14 06:29:08;;;;;;;;;35.25;30.75;;;;;;;;5011475;28;8811;-76
2023/06/14 06:31:33;;;;;;;;;32.50;29.75;;;;;;;;5015370;28;8799;-81
2023/06/14 06:33:58;;;;;;;;;25.25;23.75;;;;;;;;5006061;28;8928;-78
2023/06/14 06:36:23;;;;;;;;;23.75;21.25;;;;;;;;5002974;28;10017;-77
2023/06/14 06:38:49;;;;;;;;;23.25;20.75;;;;;;;;5008905;28;8841;-79
2023/06/14 06:41:14;;;;;;;;;22.75;21.50;;;;;;;;5013158;28;8827;-77
2023/06/14 06:43:39;;;;;;;;;20.25;19.25;;;;;;;;5005020;28;8858;-78
2023/06/14 06:46:04;;;;;;;;;27.50;22.75;;;;;;;;5010177;28;8823;-81
2023/06/14 06:48:30;;;;;;;;;25.00;22.50;;;;;;;;5013709;28;8930;-80
2023/06/14 06:50:55;;;;;;;;;25.00;24.75;;;;;;;;5014470;28;8845;-83
2023/06/14 06:53:20;;;;;;;;;17.75;16.75;;;;;;;;5000941;28;8845;-78
2023/06/14 06:55:45;;;;;;;;;21.25;19.25;;;;;;;;5011813;28;8826;-83
2023/06/14 06:58:11;;;;;;;;;26.75;23.50;;;;;;;;5001038;28;8791;-84
2023/06/14 07:00:36;;;;;;;;;21.75;19.50;;;;;;;;5007317;28;8829;-82
2023/06/14 07:03:03;;;;;;;;;18.25;16.25;;;;;;;;5010859;28;8839;-81
2023/06/14 07:05:28;;;;;;;;;22.75;20.50;;;;;;;;5005423;28;9669;-76
2023/06/14 07:07:54;;;;;;;;;22.75;16.75;;;;;;;;5004783;28;11537;-81
2023/06/14 07:10:19;;;;;;;;;19.00;18.50;;;;;;;;5009320;28;8802;-79
2023/06/14 07:12:44;;;;;;;;;21.00;20.00;;;;;;;;5011252;28;8881;-77
2023/06/14 07:15:10;;;;;;;;;24.00;20.75;;;;;;;;5009274;28;8835;-77
2023/06/14 07:17:35;;;;;;;;;24.75;21.50;;;;;;;;5011381;28;8815;-76
2023/06/14 07:20:11;;;;;;;;;22.25;22.25;;;;;;;;5012816;28;8868;-75
2023/06/14 07:22:37;;;;;;;;;21.75;20.25;;;;;;;;5013507;28;8838;-76
2023/06/14 07:25:02;;;;;;;;;18.75;16.75;;;;;;;;5014801;28;11486;-76
2023/06/14 07:27:28;;;;;;;;;22.75;18.50;;;;;;;;5013832;28;8803;-77
2023/06/14 07:29:53;;;;;;;;;22.25;19.50;;;;;;;;5012614;28;8830;-76
2023/06/14 07:32:18;;;;;;;;;21.75;18.50;;;;;;;;5015316;28;8811;-77
2023/06/14 07:34:43;;;;;;;;;18.25;17.50;;;;;;;;5006544;28;8881;-77
2023/06/14 07:37:08;;;;;;;;;15.50;15.50;;;;;;;;5012257;28;8802;-77
2023/06/14 07:39:34;;;;;;;;;19.25;16.75;;;;;;;;5015829;28;8792;-75
2023/06/14 07:41:59;;;;;;;;;18.75;18.00;;;;;;;;5006299;28;8852;-76
2023/06/14 07:44:24;;;;;;;;;20.25;19.75;;;;;;;;5012482;28;8839;-75
2023/06/14 07:46:50;;;;;;;;;17.25;15.50;;;;;;;;5008332;28;9551;-76
2023/06/14 07:49:15;;;;;;;;;19.75;18.50;;;;;;;;5011973;28;8815;-80
2023/06/14 07:51:40;;;;;;;;;15.75;15.00;;;;;;;;5013994;28;8819;-75
2023/06/14 07:54:07;;;;;;;;;23.50;20.50;;;;;;;;5009560;28;8829;-73
2023/06/14 07:56:32;;;;;;;;;17.50;15.25;;;;;;;;5013887;28;8803;-73
2023/06/14 07:58:57;;;;;;;;;18.25;17.50;;;;;;;;5012287;28;11335;-73
2023/06/14 08:01:25;;;;;;;;;16.50;16.50;;;;;;;;5013128;28;9661;-71
2023/06/14 08:03:50;;;;;;;;;18.50;16.50;;;;;;;;5016917;28;8803;-72
2023/06/14 08:06:15;;;;;;;;;16.50;15.00;;;;;;;;5007997;28;11157;-72
2023/06/14 08:08:40;;;;;;;;;16.75;16.75;;;;;;;;5011160;28;8839;-73
2023/06/14 08:11:06;;;;;;;;;21.00;19.75;;;;;;;;5013470;28;8870;-73
2023/06/14 08:13:31;;;;;;;;;23.50;21.00;;;;;;;;5020381;28;8838;-73
2023/06/14 08:15:58;;;;;;;;;19.00;16.00;;;;;;;;5027593;28;8853;-72
2023/06/14 08:18:23;;;;;;;;;24.50;21.00;;;;;;;;5026243;28;9603;-72
2023/06/14 08:20:49;;;;;;;;;11.75;9.75;;;;;;;;5022558;28;11506;-72
2023/06/14 08:23:18;;;;;;;;;19.75;19.00;;;;;;;;5027110;28;8839;-73
2023/06/14 08:25:44;;;;;;;;;18.25;18.00;;;;;;;;5027685;28;12163;-72
2023/06/14 08:28:09;;;;;;;;;16.00;16.00;;;;;;;;5023608;28;11644;-73
2023/06/14 08:30:34;;;;;;;;;16.00;14.50;;;;;;;;5021347;28;8835;-73
2023/06/14 08:32:59;;;;;;;;;20.00;18.50;;;;;;;;5027652;28;9576;-73
2023/06/14 08:35:24;;;;;;;;;19.75;19.75;;;;;;;;5027670;28;9635;-73
2023/06/14 08:37:49;;;;;;;;;19.50;17.00;;;;;;;;5024903;28;9661;-73
2023/06/14 08:40:15;;;;;;;;;17.50;16.75;;;;;;;;5027227;28;8868;-73
2023/06/14 08:42:41;;;;;;;;;14.00;13.50;;;;;;;;5026684;28;8851;-73
2023/06/14 08:45:06;;;;;;;;;17.50;16.50;;;;;;;;5026683;28;8803;-73
2023/06/14 08:47:36;;;;;;;;;16.75;16.75;;;;;;;;5026971;28;11575;-73
2023/06/14 08:50:03;;;;;;;;;18.50;18.00;;;;;;;;5020772;28;9220;-73
2023/06/14 08:52:33;;;;;;;;;17.50;17.50;;;;;;;;5025258;28;11281;-73
2023/06/14 08:54:59;;;;;;;;;18.00;18.00;;;;;;;;5026682;28;11163;-73
2023/06/14 08:57:27;;;;;;;;;17.50;17.00;;;;;;;;5025802;28;11127;-74
2023/06/14 08:59:53;;;;;;;;;20.00;20.00;;;;;;;;5027171;28;12287;-74
2023/06/14 09:02:19;;;;;;;;;19.50;19.50;;;;;;;;5027212;28;12361;-73
2023/06/14 09:04:44;;;;;;;;;17.25;17.25;;;;;;;;5025204;28;11281;-73
2023/06/14 09:07:10;;;;;;;;;20.00;17.50;;;;;;;;5023884;28;8912;-73
2023/06/14 09:09:38;;;;;;;;;19.00;19.00;;;;;;;;5022525;28;8830;-74
2023/06/14 09:12:06;;;;;;;;;20.75;18.75;;;;;;;;5027000;28;8776;-74
2023/06/14 09:14:35;;;;;;;;;17.75;17.00;;;;;;;;5022211;28;11397;-74
2023/06/14 09:17:00;;;;;;;;;16.50;16.50;;;;;;;;5027036;28;11029;-74
2023/06/14 09:19:25;;;;;;;;;15.50;14.75;;;;;;;;5027162;28;11118;-73
2023/06/14 09:21:52;;;;;;;;;18.00;17.00;;;;;;;;5023268;28;8813;-73
2023/06/14 09:24:18;;;;;;;;;16.25;16.25;;;;;;;;5024064;28;8850;-73
2023/06/14 09:26:46;;;;;;;;;17.00;15.75;;;;;;;;5026780;28;11284;-73
2023/06/14 09:29:11;;;;;;;;;16.50;14.25;;;;;;;;5026379;28;8930;-73
2023/06/14 09:31:36;;;;;;;;;19.75;19.50;;;;;;;;5026748;28;11336;-73
2023/06/14 09:34:02;;;;;;;;;17.50;17.50;;;;;;;;5025048;28;9615;-74
2023/06/14 09:36:27;;;;;;;;;14.25;14.25;;;;;;;;5025953;28;8803;-74
2023/06/14 09:38:54;;;;;;;;;18.00;16.00;;;;;;;;5024488;28;8837;-73
2023/06/14 09:41:19;;;;;;;;;15.00;11.25;;;;;;;;5019643;28;8833;-74
2023/06/14 09:43:45;;;;;;;;;16.00;13.75;;;;;;;;5026852;28;11050;-75
2023/06/14 09:46:10;;;;;;;;;14.00;11.25;;;;;;;;5025907;28;8814;-74
2023/06/14 09:48:35;;;;;;;;;15.75;15.75;;;;;;;;5026349;28;11010;-80
2023/06/14 09:51:01;;;;;;;;;14.00;14.00;;;;;;;;5021666;28;8827;-73
2023/06/14 09:53:28;;;;;;;;;18.50;16.75;;;;;;;;5025886;28;8803;-72
2023/06/14 09:55:54;;;;;;;;;16.75;14.75;;;;;;;;5019267;28;8834;-76
2023/06/14 09:58:20;;;;;;;;;11.50;11.50;;;;;;;;5026027;28;11435;-82
2023/06/14 10:00:47;;;;;;;;;15.00;15.00;;;;;;;;5025865;28;11483;-75
2023/06/14 10:03:14;;;;;;;;;14.50;14.50;;;;;;;;5024868;28;8823;-77
2023/06/14 10:05:41;;;;;;;;;14.75;14.00;;;;;;;;5025470;28;11180;-76
2023/06/14 10:08:12;;;;;;;;;14.75;14.00;;;;;;;;5025391;28;11228;-75
2023/06/14 10:10:39;;;;;;;;;13.25;13.25;;;;;;;;5029651;28;11500;-76
2023/06/14 10:13:04;;;;;;;;;16.50;14.75;;;;;;;;5026122;28;11289;-76
2023/06/14 10:15:43;;;;;;;;;13.75;13.75;;;;;;;;5025744;28;11151;-75
2023/06/14 10:18:15;;;;;;;;;15.50;14.25;;;;;;;;5022142;28;8800;-76
2023/06/14 10:21:07;;;;;;;;;14.50;14.50;;;;;;;;5026229;28;11276;-75
2023/06/14 10:23:34;;;;;;;;;15.75;14.75;;;;;;;;5016178;28;12291;-75
2023/06/14 10:26:00;;;;;;;;;13.75;13.75;;;;;;;;5026101;28;11257;-76
2023/06/14 10:28:26;;;;;;;;;9.75;9.50;;;;;;;;5018822;28;11246;-76
2023/06/14 10:31:11;;;;;;;;;15.25;14.00;;;;;;;;5011553;28;11229;-76
2023/06/14 10:33:52;;;;;;;;;14.75;14.75;;;;;;;;5024273;28;11499;-73
2023/06/14 10:36:34;;;;;;;;;12.75;12.50;;;;;;;;5022196;28;11466;-76
2023/06/14 10:39:21;;;;;;;;;15.75;14.00;;;;;;;;5026023;28;11460;-72
2023/06/14 10:41:53;;;;;;;;;14.75;14.25;;;;;;;;5024645;28;11470;-73
2023/06/14 10:44:21;;;;;;;;;16.75;14.50;;;;;;;;5021246;28;12306;-73
2023/06/14 10:46:47;;;;;;;;;15.00;15.00;;;;;;;;5029139;28;11469;-71
2023/06/14 10:49:19;;;;;;;;;16.25;15.25;;;;;;;;5025753;28;11646;-71
2023/06/14 10:51:49;;;;;;;;;15.25;13.75;;;;;;;;5028447;28;11468;-79
2023/06/14 10:54:15;;;;;;;;;15.50;12.50;;;;;;;;5029276;28;11467;-75
2023/06/14 10:56:47;;;;;;;;;10.75;10.75;;;;;;;;5023210;28;12217;-80
2023/06/14 10:59:12;;;;;;;;;17.50;14.00;;;;;;;;5020852;28;8889;-73
2023/06/14 11:01:56;;;;;;;;;15.00;15.00;;;;;;;;5020897;28;11499;-75
2023/06/14 11:04:23;;;;;;;;;14.00;14.00;;;;;;;;5022684;28;8812;-77
2023/06/14 11:06:49;;;;;;;;;16.75;13.75;;;;;;;;5026282;28;11254;-78
2023/06/14 11:09:32;;;;;;;;;13.25;13.25;;;;;;;;5029331;28;12275;-78
2023/06/14 11:11:58;;;;;;;;;16.75;15.25;;;;;;;;5023863;28;11498;-78
2023/06/14 11:14:23;;;;;;;;;13.00;13.00;;;;;;;;5026871;28;11498;-80
2023/06/14 11:16:49;;;;;;;;;14.75;14.75;;;;;;;;5027621;28;11494;-75
2023/06/14 11:19:17;;;;;;;;;17.25;15.00;;;;;;;;5029141;28;8834;-81
2023/06/14 11:21:42;;;;;;;;;15.00;14.00;;;;;;;;5024067;28;8841;-75
2023/06/14 11:24:09;;;;;;;;;10.00;10.00;;;;;;;;5028011;28;11286;-76
2023/06/14 11:26:37;;;;;;;;;13.00;12.00;;;;;;;;5027863;28;8791;-84
2023/06/14 11:29:02;;;;;;;;;10.00;10.00;;;;;;;;5023184;28;11107;-78
2023/06/14 11:31:28;;;;;;;;;12.50;12.50;;;;;;;;5024887;28;11946;-74
2023/06/14 11:33:54;;;;;;;;;13.50;13.50;;;;;;;;5026083;28;8853;-75
2023/06/14 11:36:20;;;;;;;;;12.00;9.75;;;;;;;;5027427;28;8798;-75
2023/06/14 11:38:45;;;;;;;;;15.50;14.50;;;;;;;;5028401;28;11001;-72
2023/06/14 11:41:10;;;;;;;;;15.25;12.25;;;;;;;;5028618;28;8850;-72
2023/06/14 11:43:36;;;;;;;;;6.75;6.00;;;;;;;;5028177;28;8865;-72
2023/06/14 11:46:01;;;;;;;;;17.25;16.75;;;;;;;;5027683;28;9878;-73
2023/06/14 11:48:40;;;;;;;;;14.75;14.75;;;;;;;;5023768;28;9586;-73
2023/06/14 11:51:05;;;;;;;;;21.75;16.50;;;;;;;;5026188;28;8804;-72
2023/06/14 11:53:31;;;;;;;;;17.00;15.75;;;;;;;;5026541;28;11395;-73
2023/06/14 11:55:57;;;;;;;;;17.25;16.75;;;;;;;;5025808;28;8811;-79
2023/06/14 11:58:22;;;;;;;;;21.50;18.75;;;;;;;;5022735;28;8824;-77
2023/06/14 12:00:49;;;;;;;;;18.75;18.75;;;;;;;;5013997;28;11588;-77
2023/06/14 12:03:14;;;;;;;;;24.00;22.25;;;;;;;;5027005;28;8830;-76
2023/06/14 12:05:39;;;;;;;;;33.00;29.50;;;;;;;;5024441;28;11511;-77
2023/06/14 12:08:07;;;;;;;;;17.25;15.00;;;;;;;;5026001;28;8799;-77
2023/06/14 12:10:39;;;;;;;;;15.50;15.50;;;;;;;;5026981;28;9968;-78
2023/06/14 12:13:05;;;;;;;;;18.00;17.25;;;;;;;;5020481;28;11726;-79
2023/06/14 12:15:31;;;;;;;;;19.00;19.00;;;;;;;;5009549;28;12433;-77
2023/06/14 12:17:57;;;;;;;;;14.25;14.25;;;;;;;;5026412;28;11510;-76
2023/06/14 12:20:23;;;;;;;;;16.25;14.50;;;;;;;;5025663;28;8795;-82
2023/06/14 12:22:56;;;;;;;;;18.75;17.50;;;;;;;;5026946;28;11237;-78
2023/06/14 12:25:26;;;;;;;;;15.75;15.75;;;;;;;;5022089;28;8818;-78
2023/06/14 12:27:52;;;;;;;;;16.00;15.75;;;;;;;;5025291;28;11164;-81
2023/06/14 12:30:17;;;;;;;;;14.50;13.50;;;;;;;;5026246;28;11339;-81
2023/06/14 12:32:44;;;;;;;;;14.25;14.25;;;;;;;;5026227;28;8846;-77
2023/06/14 12:35:09;;;;;;;;;16.50;16.25;;;;;;;;5025529;28;9584;-78
2023/06/14 12:37:34;;;;;;;;;17.50;16.75;;;;;;;;5025932;28;11263;-78
2023/06/14 12:39:59;;;;;;;;;12.75;12.00;;;;;;;;5020800;28;8973;-78
2023/06/14 12:42:25;;;;;;;;;17.75;16.25;;;;;;;;5025194;28;8863;-76
2023/06/14 12:44:50;;;;;;;;;16.50;16.50;;;;;;;;5024247;28;8823;-73
2023/06/14 12:47:15;;;;;;;;;19.00;17.75;;;;;;;;5027858;28;8865;-75
2023/06/14 12:49:40;;;;;;;;;20.50;19.50;;;;;;;;5025928;28;8851;-74
2023/06/14 12:52:06;;;;;;;;;15.25;15.25;;;;;;;;5026815;28;8839;-74
2023/06/14 12:54:31;;;;;;;;;17.00;17.00;;;;;;;;5022238;28;8833;-73
2023/06/14 12:56:56;;;;;;;;;14.75;14.75;;;;;;;;5023672;28;8835;-74
2023/06/14 12:59:21;;;;;;;;;17.00;16.50;;;;;;;;5025188;28;8834;-73
2023/06/14 13:01:50;;;;;;;;;6.00;5.00;;;;;;;;5021184;28;9687;-74
2023/06/14 13:04:15;;;;;;;;;15.25;15.00;;;;;;;;5027173;28;8843;-74
2023/06/14 13:06:40;;;;;;;;;17.00;17.00;;;;;;;;5026248;28;11165;-75
2023/06/14 13:09:05;;;;;;;;;16.00;15.50;;;;;;;;5022557;28;8803;-76
2023/06/14 13:11:31;;;;;;;;;17.50;17.50;;;;;;;;5023054;28;9835;-76
2023/06/14 13:13:57;;;;;;;;;10.50;9.75;;;;;;;;5026807;28;8827;-76
2023/06/14 13:16:22;;;;;;;;;17.50;17.00;;;;;;;;5025709;28;11242;-76
2023/06/14 13:18:48;;;;;;;;;21.25;18.00;;;;;;;;5025255;28;8823;-76
2023/06/14 13:21:13;;;;;;;;;18.00;16.25;;;;;;;;5027183;28;8842;-77
2023/06/14 13:23:38;;;;;;;;;18.00;15.50;;;;;;;;5021165;28;8839;-76
2023/06/14 13:26:03;;;;;;;;;16.75;14.50;;;;;;;;5027159;28;8815;-77
2023/06/14 13:28:29;;;;;;;;;15.00;13.50;;;;;;;;5027732;28;8823;-79
2023/06/14 13:30:55;;;;;;;;;16.25;12.00;;;;;;;;5025282;28;8851;-84
2023/06/14 13:33:20;;;;;;;;;17.25;17.25;;;;;;;;5023970;28;8811;-86
2023/06/14 13:35:46;;;;;;;;;18.00;18.00;;;;;;;;5028070;28;11596;-79
2023/06/14 13:38:11;;;;;;;;;17.00;16.75;;;;;;;;5024140;28;8854;-81
2023/06/14 13:40:36;;;;;;;;;14.25;14.25;;;;;;;;5028263;28;8851;-84
2023/06/14 13:43:01;;;;;;;;;16.75;15.75;;;;;;;;5019674;28;8851;-81
2023/06/14 13:45:26;;;;;;;;;16.75;16.75;;;;;;;;5024175;28;8823;-80
2023/06/14 13:47:52;;;;;;;;;21.75;20.75;;;;;;;;5024281;28;9584;-79
2023/06/14 13:50:17;;;;;;;;;20.50;20.00;;;;;;;;5026274;28;8827;-80
2023/06/14 13:52:42;;;;;;;;;18.00;18.00;;;;;;;;5020700;28;8833;-79
2023/06/14 13:55:08;;;;;;;;;15.75;15.75;;;;;;;;5022998;28;8823;-80
2023/06/14 13:57:33;;;;;;;;;15.50;15.25;;;;;;;;5025418;28;8843;-78
2023/06/14 14:00:01;;;;;;;;;14.25;12.75;;;;;;;;5021900;28;8823;-81
2023/06/14 14:02:26;;;;;;;;;14.00;12.75;;;;;;;;5025564;28;8823;-80
2023/06/14 14:04:53;;;;;;;;;18.50;18.50;;;;;;;;5023002;28;11147;-77
2023/06/14 14:07:19;;;;;;;;;18.50;18.50;;;;;;;;5025417;28;8844;-80
